Terminal Aerodrome Forecast
Issued by NWS

Home | Current Version | Previous Version | Text Only | Print | Product List | Glossary On
Versions: 1 2 3 4 5 6 7 8 9 10 11 12 13 14 15 16 17 18 19 20
000
FTAK31 PANC 230634 AAA
TAFADU
TAF AMD
PADU 230634Z 2307/2406 06010KT 2SM BR OVC003
     FM231200 VRB04KT 1SM BR OVC002
     FM231900 VRB04KT P6SM FEW002 BKN015
      AMD NOT SKED=

USA.gov is the U.S. government's official web portal to all federal, state and local government web resources and services.